createdAt,value
2017-06-23T00:00:00.356Z,44.20
2017-06-23T00:02:29.130Z,45.90
2017-06-23T00:04:57.602Z,43.27
2017-06-23T00:07:26.489Z,43.87
2017-06-23T00:09:55.105Z,42.73
2017-06-23T00:12:23.662Z,42.97
2017-06-23T00:14:52.154Z,41.93
2017-06-23T00:17:20.831Z,38.60
2017-06-23T00:19:49.311Z,36.73
2017-06-23T00:22:17.768Z,37.47
2017-06-23T00:24:46.239Z,37.47
2017-06-23T00:27:16.009Z,38.23
2017-06-23T00:29:44.678Z,38.60
2017-06-23T00:32:13.152Z,39.07
2017-06-23T00:34:41.750Z,40.70
2017-06-23T00:37:10.205Z,36.07
2017-06-23T00:39:38.719Z,37.70
2017-06-23T00:42:07.173Z,39.87
2017-06-23T00:44:36.166Z,40.27
2017-06-23T00:47:05.253Z,37.93
2017-06-23T00:49:33.860Z,37.40
2017-06-23T00:52:02.349Z,38.30
2017-06-23T00:54:30.848Z,35.67
2017-06-23T00:56:59.314Z,35.70
2017-06-23T00:59:27.812Z,34.47
2017-06-23T01:01:56.283Z,36.20
2017-06-23T01:04:24.794Z,35.00
2017-06-23T01:06:53.928Z,34.70
2017-06-23T01:09:22.549Z,36.60
2017-06-23T01:11:51.017Z,38.13
2017-06-23T01:14:19.525Z,37.13
2017-06-23T01:16:48.048Z,38.80
2017-06-23T01:19:17.608Z,34.20
2017-06-23T01:21:46.677Z,35.33
2017-06-23T01:24:15.321Z,34.37
2017-06-23T01:26:43.825Z,32.13
2017-06-23T01:29:13.073Z,32.27
2017-06-23T01:31:41.577Z,31.70
2017-06-23T01:34:10.265Z,32.70
2017-06-23T01:36:38.910Z,30.37
2017-06-23T01:39:07.413Z,25.93
2017-06-23T01:41:36.006Z,27.33
2017-06-23T01:44:04.590Z,28.67
2017-06-23T01:46:33.092Z,24.47
2017-06-23T01:49:02.022Z,24.60
2017-06-23T01:51:30.640Z,22.27
2017-06-23T01:53:59.324Z,19.93
2017-06-23T01:56:27.938Z,20.23
2017-06-23T01:58:56.600Z,18.90
2017-06-23T02:01:25.065Z,17.57
2017-06-23T02:03:53.556Z,17.30
2017-06-23T02:06:22.204Z,17.20
2017-06-23T02:08:51.655Z,18.10
2017-06-23T02:11:20.115Z,16.67
2017-06-23T02:13:49.128Z,15.37
2017-06-23T02:16:17.573Z,17.63
2017-06-23T02:18:46.036Z,17.53
2017-06-23T02:21:15.240Z,18.90
2017-06-23T02:23:43.708Z,18.10
2017-06-23T02:26:12.153Z,20.30
2017-06-23T02:28:40.977Z,18.60
2017-06-23T02:31:09.428Z,18.37
2017-06-23T02:33:37.920Z,17.83
2017-06-23T02:36:06.460Z,17.30
2017-06-23T02:38:34.908Z,18.37
2017-06-23T02:41:03.565Z,18.40
2017-06-23T02:43:32.050Z,17.47
2017-06-23T02:46:00.633Z,16.20
2017-06-23T02:48:29.225Z,15.80
2017-06-23T02:50:58.378Z,15.67
2017-06-23T02:53:26.880Z,15.20
2017-06-23T02:55:55.488Z,14.70
2017-06-23T02:58:24.069Z,16.33
2017-06-23T03:00:52.718Z,13.67
2017-06-23T03:03:21.197Z,14.67
2017-06-23T03:05:50.416Z,13.80
2017-06-23T03:08:18.983Z,14.20
2017-06-23T03:10:47.670Z,14.07
2017-06-23T03:13:21.008Z,11.97
2017-06-23T03:15:50.225Z,14.30
2017-06-23T03:18:19.095Z,13.30
2017-06-23T03:20:47.977Z,9.93
2017-06-23T03:23:16.453Z,11.70
2017-06-23T03:25:44.952Z,11.70
2017-06-23T03:28:15.273Z,10.37
2017-06-23T03:30:44.516Z,11.33
2017-06-23T03:33:17.941Z,11.60
2017-06-23T03:35:47.194Z,11.63
2017-06-23T03:38:16.709Z,11.70
2017-06-23T03:40:45.228Z,10.93
2017-06-23T03:43:13.803Z,11.37
2017-06-23T03:45:42.554Z,12.30
2017-06-23T03:48:11.006Z,10.40
2017-06-23T03:50:39.523Z,11.53
2017-06-23T03:53:08.431Z,12.60
2017-06-23T03:55:36.923Z,11.77
2017-06-23T03:58:06.161Z,10.20
2017-06-23T04:00:34.931Z,10.80
2017-06-23T04:03:03.388Z,11.53
2017-06-23T04:05:31.948Z,11.97
2017-06-23T04:08:00.408Z,11.23
2017-06-23T04:10:29.006Z,11.10
2017-06-23T04:12:57.460Z,10.43
2017-06-23T04:15:26.439Z,11.33
2017-06-23T04:17:54.884Z,11.50
2017-06-23T04:20:23.449Z,8.10
2017-06-23T04:22:51.885Z,9.30
2017-06-23T04:25:20.333Z,8.73
2017-06-23T04:27:48.796Z,8.77
2017-06-23T04:30:17.290Z,8.40
2017-06-23T04:32:45.792Z,7.70
2017-06-23T04:35:14.246Z,8.27
2017-06-23T04:37:42.708Z,9.00
2017-06-23T04:40:11.629Z,8.93
2017-06-23T04:42:40.175Z,7.70
2017-06-23T04:45:08.641Z,8.97
2017-06-23T04:47:37.150Z,10.40
2017-06-23T04:50:05.809Z,9.93
2017-06-23T04:52:34.277Z,9.50
2017-06-23T04:55:03.461Z,9.27
2017-06-23T04:57:32.288Z,10.43
2017-06-23T05:00:00.752Z,10.67
2017-06-23T05:02:30.013Z,9.30
2017-06-23T05:04:58.467Z,11.67
2017-06-23T05:07:26.929Z,10.30
2017-06-23T05:09:58.042Z,11.60
2017-06-23T05:12:27.447Z,11.67
2017-06-23T05:14:55.959Z,11.77
2017-06-23T05:17:24.414Z,10.20
2017-06-23T05:19:53.652Z,11.93
2017-06-23T05:22:23.198Z,12.10
2017-06-23T05:24:52.201Z,10.17
2017-06-23T05:27:21.812Z,10.97
2017-06-23T05:29:50.408Z,10.70
2017-06-23T05:32:19.001Z,10.33
2017-06-23T05:34:47.489Z,10.83
2017-06-23T05:37:16.496Z,10.30
2017-06-23T05:39:45.004Z,11.10
2017-06-23T05:42:13.724Z,11.73
2017-06-23T05:44:42.363Z,9.50
2017-06-23T05:47:11.247Z,10.20
2017-06-23T05:49:39.718Z,10.80
2017-06-23T05:52:08.941Z,11.53
2017-06-23T05:54:37.546Z,11.00
2017-06-23T05:57:06.052Z,10.67
2017-06-23T05:59:34.608Z,11.13
2017-06-23T06:02:03.061Z,10.77
2017-06-23T06:04:31.869Z,10.87
2017-06-23T06:07:00.337Z,11.10
2017-06-23T06:09:29.272Z,10.20
2017-06-23T06:11:58.015Z,10.17
2017-06-23T06:14:27.045Z,10.93
2017-06-23T06:16:55.552Z,11.27
2017-06-23T06:19:24.073Z,10.53
2017-06-23T06:21:52.652Z,11.00
2017-06-23T06:24:21.364Z,9.70
2017-06-23T06:26:50.119Z,11.50
2017-06-23T06:29:18.626Z,10.03
2017-06-23T06:31:47.117Z,11.00
2017-06-23T06:34:15.824Z,10.63
2017-06-23T06:36:44.388Z,10.57
2017-06-23T06:39:14.296Z,10.17
2017-06-23T06:41:42.977Z,10.70
2017-06-23T06:44:11.449Z,9.60
2017-06-23T06:46:40.759Z,8.77
2017-06-23T06:49:09.277Z,9.80
2017-06-23T06:51:37.752Z,9.30
2017-06-23T06:54:06.583Z,10.17
2017-06-23T06:56:35.317Z,10.37
2017-06-23T06:59:03.798Z,9.70
2017-06-23T07:01:32.415Z,10.33
2017-06-23T07:04:00.921Z,8.93
2017-06-23T07:06:29.401Z,9.40
2017-06-23T07:08:57.933Z,9.90
2017-06-23T07:11:26.917Z,9.97
2017-06-23T07:13:56.630Z,9.20
2017-06-23T07:16:25.133Z,8.87
2017-06-23T07:18:53.634Z,11.13
2017-06-23T07:21:22.278Z,10.00
2017-06-23T07:23:50.903Z,9.63
2017-06-23T07:26:19.402Z,11.53
2017-06-23T07:28:48.136Z,8.70
2017-06-23T07:31:16.690Z,9.80
2017-06-23T07:33:45.629Z,10.83
2017-06-23T07:36:14.196Z,10.17
2017-06-23T07:38:42.737Z,8.90
2017-06-23T07:41:11.300Z,10.10
2017-06-23T07:43:39.846Z,9.33
2017-06-23T07:46:08.746Z,10.10
2017-06-23T07:48:37.426Z,10.73
2017-06-23T07:51:06.030Z,10.93
2017-06-23T07:53:34.545Z,9.03
2017-06-23T07:56:03.024Z,9.07
2017-06-23T07:58:31.937Z,10.00
2017-06-23T08:01:00.493Z,9.83
2017-06-23T08:03:28.965Z,9.73
2017-06-23T08:05:57.637Z,10.43
2017-06-23T08:08:26.272Z,8.97
2017-06-23T08:10:54.844Z,10.37
2017-06-23T08:13:23.417Z,10.83
2017-06-23T08:15:51.925Z,9.27
2017-06-23T08:18:20.597Z,9.40
2017-06-23T08:20:49.461Z,10.13
2017-06-23T08:23:17.932Z,10.20
2017-06-23T08:25:46.410Z,10.17
2017-06-23T08:28:14.893Z,9.53
2017-06-23T08:30:44.044Z,10.30
2017-06-23T08:33:12.656Z,10.80
2017-06-23T08:35:41.873Z,9.83
2017-06-23T08:38:10.389Z,8.93
2017-06-23T08:40:39.325Z,9.60
2017-06-23T08:43:09.002Z,9.77
2017-06-23T08:45:41.168Z,10.10
2017-06-23T08:48:10.061Z,9.10
2017-06-23T08:50:38.549Z,8.97
2017-06-23T08:53:07.492Z,9.50
2017-06-23T08:55:36.053Z,10.80
2017-06-23T08:58:05.378Z,8.87
2017-06-23T09:00:33.832Z,9.47
2017-06-23T09:03:02.313Z,8.60
2017-06-23T09:05:31.213Z,8.80
2017-06-23T09:08:00.437Z,9.10
2017-06-23T09:10:28.992Z,8.40
2017-06-23T09:12:58.238Z,9.07
2017-06-23T09:15:26.821Z,9.40
2017-06-23T09:17:55.474Z,8.13
2017-06-23T09:20:24.668Z,7.93
2017-06-23T09:22:53.509Z,7.80
2017-06-23T09:25:22.140Z,9.70
2017-06-23T09:27:51.464Z,7.93
2017-06-23T09:30:19.916Z,7.00
2017-06-23T09:32:48.393Z,7.90
2017-06-23T09:35:16.912Z,8.33
2017-06-23T09:37:45.750Z,8.70
2017-06-23T09:40:14.285Z,7.70
2017-06-23T09:42:42.808Z,8.20
2017-06-23T09:45:11.357Z,7.93
2017-06-23T09:47:40.348Z,9.73
2017-06-23T09:50:09.288Z,8.00
2017-06-23T09:52:37.765Z,8.90
2017-06-23T09:55:06.465Z,9.07
2017-06-23T09:57:34.952Z,8.83
2017-06-23T10:00:03.586Z,9.23
2017-06-23T10:02:32.100Z,8.93
2017-06-23T10:05:00.716Z,8.80
2017-06-23T10:07:29.654Z,8.87
2017-06-23T10:09:58.508Z,7.90
2017-06-23T10:12:27.764Z,8.07
2017-06-23T10:14:56.549Z,8.07
2017-06-23T10:17:25.117Z,7.90
2017-06-23T10:19:54.351Z,7.27
2017-06-23T10:22:22.804Z,7.17
2017-06-23T10:24:51.615Z,7.20
2017-06-23T10:27:20.085Z,5.73
2017-06-23T10:29:49.043Z,6.20
2017-06-23T10:32:19.051Z,6.00
2017-06-23T10:34:48.345Z,5.43
2017-06-23T10:37:20.678Z,5.77
2017-06-23T10:39:50.057Z,6.13
2017-06-23T10:42:18.537Z,5.73
2017-06-23T10:44:47.540Z,5.80
2017-06-23T10:47:16.216Z,5.20
2017-06-23T10:49:44.839Z,5.37
2017-06-23T10:52:13.413Z,4.23
2017-06-23T10:54:41.988Z,5.30
2017-06-23T10:57:10.637Z,5.63
2017-06-23T10:59:40.482Z,4.60
2017-06-23T11:02:09.868Z,4.20
2017-06-23T11:04:38.381Z,3.73
2017-06-23T11:07:06.953Z,3.70
2017-06-23T11:09:35.554Z,4.40
2017-06-23T11:12:04.020Z,3.60
2017-06-23T11:14:32.665Z,3.70
2017-06-23T11:17:02.033Z,3.73
2017-06-23T11:19:30.509Z,4.17
2017-06-23T11:21:59.306Z,4.40
2017-06-23T11:24:27.798Z,5.13
2017-06-23T11:26:57.775Z,5.30
2017-06-23T11:29:26.377Z,4.53
2017-06-23T11:31:54.905Z,4.10
2017-06-23T11:34:32.461Z,4.10
2017-06-23T11:37:01.024Z,4.43
2017-06-23T11:39:29.740Z,3.90
2017-06-23T11:41:58.490Z,4.47
2017-06-23T11:44:27.033Z,3.90
2017-06-23T11:46:55.572Z,4.60
2017-06-23T11:49:24.068Z,4.40
2017-06-23T11:51:53.189Z,4.33
2017-06-23T11:54:28.273Z,4.50
2017-06-23T11:56:56.858Z,4.30
2017-06-23T11:59:25.761Z,4.23
2017-06-23T12:01:54.649Z,3.60
2017-06-23T12:04:25.200Z,4.37
2017-06-23T12:06:55.498Z,4.53
2017-06-23T12:09:24.209Z,4.40
2017-06-23T12:11:54.841Z,4.97
2017-06-23T12:14:27.397Z,4.53
2017-06-23T12:16:58.240Z,4.23
2017-06-23T12:19:28.083Z,3.87
2017-06-23T12:21:56.983Z,3.70
2017-06-23T12:24:26.798Z,4.80
2017-06-23T12:26:56.445Z,4.67
2017-06-23T12:29:25.082Z,5.03
2017-06-23T12:31:54.097Z,3.70
2017-06-23T12:34:23.036Z,4.30
2017-06-23T12:36:52.136Z,4.57
2017-06-23T12:39:21.363Z,5.00
2017-06-23T12:41:50.258Z,4.63
2017-06-23T12:44:18.893Z,4.97
2017-06-23T12:46:49.181Z,4.00
2017-06-23T12:49:22.922Z,4.80
2017-06-23T12:51:53.844Z,4.00
2017-06-23T12:54:24.742Z,4.70
2017-06-23T12:56:54.343Z,4.50
2017-06-23T12:59:25.066Z,4.50
2017-06-23T13:01:59.774Z,4.47
2017-06-23T13:04:30.608Z,4.53
2017-06-23T13:06:59.418Z,5.17
2017-06-23T13:09:29.180Z,4.57
2017-06-23T13:11:59.139Z,4.30
2017-06-23T13:14:29.840Z,4.13
2017-06-23T13:16:59.544Z,4.30
2017-06-23T13:19:32.753Z,4.37
2017-06-23T13:22:08.313Z,4.60
2017-06-23T13:24:38.646Z,5.20
2017-06-23T13:27:08.787Z,4.87
2017-06-23T13:29:37.277Z,4.33
2017-06-23T13:32:05.785Z,5.00
2017-06-23T13:34:35.432Z,5.00
2017-06-23T13:37:05.960Z,4.67
2017-06-23T13:39:36.417Z,4.50
2017-06-23T13:42:06.431Z,4.90
2017-06-23T13:44:36.508Z,4.43
2017-06-23T13:47:06.645Z,5.27
2017-06-23T13:49:37.071Z,5.53
2017-06-23T13:52:07.835Z,5.90
2017-06-23T13:54:40.554Z,5.60
2017-06-23T13:57:10.347Z,4.77
2017-06-23T13:59:38.829Z,5.00
2017-06-23T14:02:07.707Z,5.30
2017-06-23T14:04:39.029Z,5.50
2017-06-23T14:07:07.809Z,6.10
2017-06-23T14:09:41.616Z,6.40
2017-06-23T14:12:10.254Z,6.40
2017-06-23T14:14:41.115Z,6.00
2017-06-23T14:17:15.256Z,6.40
2017-06-23T14:19:46.984Z,6.63
2017-06-23T14:22:17.521Z,7.20
2017-06-23T14:24:47.317Z,5.40
2017-06-23T14:27:19.181Z,5.17
2017-06-23T14:29:48.843Z,5.43
2017-06-23T14:32:17.725Z,5.37
2017-06-23T14:34:46.528Z,5.63
2017-06-23T14:37:15.872Z,6.40
2017-06-23T14:39:46.629Z,5.53
2017-06-23T14:42:15.674Z,5.80
2017-06-23T14:44:45.590Z,5.30
2017-06-23T14:47:15.846Z,6.00
2017-06-23T14:49:52.300Z,5.53
2017-06-23T14:52:20.852Z,5.90
2017-06-23T14:54:50.052Z,5.37
2017-06-23T14:57:18.529Z,4.90
2017-06-23T14:59:47.138Z,5.10
2017-06-23T15:02:15.594Z,4.60
2017-06-23T15:04:44.223Z,5.10
2017-06-23T15:07:12.692Z,5.07
2017-06-23T15:09:41.189Z,4.70
2017-06-23T15:12:09.749Z,5.20
2017-06-23T15:14:38.629Z,4.27
2017-06-23T15:17:07.205Z,4.57
2017-06-23T15:19:36.150Z,4.67
2017-06-23T15:22:04.718Z,4.50
2017-06-23T15:24:33.190Z,4.00
2017-06-23T15:27:01.898Z,4.00
2017-06-23T15:29:30.438Z,4.37
2017-06-23T15:31:59.002Z,3.73
2017-06-23T15:34:28.240Z,3.47
2017-06-23T15:36:56.741Z,3.77
2017-06-23T15:39:26.395Z,4.10
2017-06-23T15:41:55.314Z,3.23
2017-06-23T15:44:24.094Z,3.30
2017-06-23T15:46:52.841Z,3.13
2017-06-23T15:49:21.537Z,3.20
2017-06-23T15:51:50.017Z,2.80
2017-06-23T15:54:19.048Z,3.20
2017-06-23T15:56:47.522Z,3.10
2017-06-23T15:59:16.748Z,3.03
2017-06-23T16:01:45.260Z,3.00
2017-06-23T16:04:13.946Z,3.47
2017-06-23T16:06:42.611Z,4.53
2017-06-23T16:09:11.417Z,5.07
2017-06-23T16:11:40.008Z,3.67
2017-06-23T16:14:08.549Z,3.33
2017-06-23T16:16:38.404Z,4.47
2017-06-23T16:19:06.964Z,5.20
2017-06-23T16:21:35.429Z,4.20
2017-06-23T16:24:03.965Z,4.03
2017-06-23T16:26:32.620Z,3.93
2017-06-23T16:29:01.197Z,3.50
2017-06-23T16:31:29.722Z,3.80
2017-06-23T16:33:58.217Z,4.57
2017-06-23T16:36:27.024Z,5.20
2017-06-23T16:38:56.360Z,5.10
2017-06-23T16:41:24.932Z,4.30
2017-06-23T16:43:53.435Z,4.60
2017-06-23T16:46:21.922Z,3.97
2017-06-23T16:48:50.403Z,4.00
2017-06-23T16:51:19.057Z,4.77
2017-06-23T16:53:49.017Z,4.43
2017-06-23T16:56:17.759Z,4.53
2017-06-23T16:58:47.304Z,5.27
2017-06-23T17:01:16.102Z,6.00
2017-06-23T17:03:44.581Z,5.57
2017-06-23T17:06:13.576Z,5.90
2017-06-23T17:08:42.069Z,5.43
2017-06-23T17:11:10.873Z,6.37
2017-06-23T17:13:39.352Z,6.47
2017-06-23T17:16:08.078Z,6.40
2017-06-23T17:18:36.767Z,6.30
2017-06-23T17:21:05.385Z,7.03
2017-06-23T17:23:34.076Z,6.67
2017-06-23T17:26:02.822Z,5.80
2017-06-23T17:28:31.480Z,7.33
2017-06-23T17:31:00.434Z,6.53
2017-06-23T17:33:29.021Z,6.63
2017-06-23T17:35:57.496Z,7.20
2017-06-23T17:38:26.043Z,6.87
2017-06-23T17:40:55.243Z,6.83
2017-06-23T17:43:23.725Z,7.00
2017-06-23T17:45:52.221Z,6.87
2017-06-23T17:48:20.856Z,7.57
2017-06-23T17:50:49.450Z,6.73
2017-06-23T17:53:18.429Z,7.13
2017-06-23T17:55:47.071Z,6.50
2017-06-23T17:58:15.616Z,7.93
2017-06-23T18:00:44.754Z,7.27
2017-06-23T18:03:13.220Z,7.90
2017-06-23T18:05:42.000Z,6.40
2017-06-23T18:08:10.497Z,6.83
2017-06-23T18:10:38.992Z,7.50
2017-06-23T18:13:08.214Z,8.30
2017-06-23T18:15:36.672Z,7.50
2017-06-23T18:18:05.175Z,7.70
2017-06-23T18:20:33.936Z,8.73
2017-06-23T18:23:02.627Z,9.73
2017-06-23T18:25:31.124Z,9.77
2017-06-23T18:27:59.600Z,9.83
2017-06-23T18:30:28.137Z,9.10
2017-06-23T18:32:57.684Z,10.60
2017-06-23T18:35:26.367Z,10.30
2017-06-23T18:37:54.833Z,11.57
2017-06-23T18:40:24.280Z,10.37
2017-06-23T18:42:52.857Z,11.00
2017-06-23T18:45:22.036Z,11.37
2017-06-23T18:47:50.622Z,12.30
2017-06-23T18:50:19.344Z,11.17
2017-06-23T18:52:48.034Z,12.63
2017-06-23T18:55:16.722Z,11.93
2017-06-23T18:57:45.205Z,13.03
2017-06-23T19:00:14.016Z,12.63
2017-06-23T19:02:42.496Z,12.20
2017-06-23T19:05:10.977Z,13.87
2017-06-23T19:07:39.447Z,12.83
2017-06-23T19:10:07.909Z,13.87
2017-06-23T19:12:36.405Z,14.20
2017-06-23T19:15:05.398Z,14.40
2017-06-23T19:17:33.952Z,13.43
2017-06-23T19:20:02.437Z,14.97
2017-06-23T19:22:30.921Z,15.53
2017-06-23T19:25:00.089Z,13.77
2017-06-23T19:27:29.409Z,15.80
2017-06-23T19:29:57.905Z,14.10
2017-06-23T19:32:26.616Z,15.30
2017-06-23T19:34:55.180Z,16.63
2017-06-23T19:37:23.750Z,14.53
2017-06-23T19:39:52.260Z,16.63
2017-06-23T19:42:20.970Z,15.77
2017-06-23T19:44:49.813Z,14.50
2017-06-23T19:47:18.737Z,15.60
2017-06-23T19:49:47.220Z,16.20
2017-06-23T19:52:15.806Z,14.47
2017-06-23T19:54:44.290Z,16.13
2017-06-23T19:57:12.756Z,14.30
2017-06-23T19:59:41.292Z,14.37
2017-06-23T20:02:10.666Z,15.10
2017-06-23T20:04:39.194Z,14.77
2017-06-23T20:07:07.705Z,16.20
2017-06-23T20:09:36.640Z,15.50
2017-06-23T20:12:05.123Z,14.43
2017-06-23T20:14:34.608Z,14.57
2017-06-23T20:17:03.422Z,15.37
2017-06-23T20:19:32.248Z,13.50
2017-06-23T20:22:00.761Z,15.00
2017-06-23T20:24:29.337Z,14.30
2017-06-23T20:26:57.820Z,13.60
2017-06-23T20:29:26.317Z,13.20
2017-06-23T20:31:54.833Z,15.10
2017-06-23T20:34:23.845Z,12.83
2017-06-23T20:36:52.361Z,14.70
2017-06-23T20:39:20.964Z,13.30
2017-06-23T20:41:49.692Z,13.40
2017-06-23T20:44:18.168Z,13.60
2017-06-23T20:46:46.817Z,13.90
2017-06-23T20:49:15.462Z,13.40
2017-06-23T20:51:45.799Z,13.17
2017-06-23T20:54:14.386Z,13.50
2017-06-23T20:56:42.917Z,14.73
2017-06-23T20:59:11.493Z,13.50
2017-06-23T21:01:40.000Z,12.23
2017-06-23T21:04:08.496Z,14.30
2017-06-23T21:06:38.020Z,13.63
2017-06-23T21:09:06.525Z,14.60
2017-06-23T21:11:35.251Z,15.33
2017-06-23T21:14:03.847Z,14.50
2017-06-23T21:16:33.313Z,15.53
2017-06-23T21:19:02.076Z,14.50
2017-06-23T21:21:31.899Z,16.77
2017-06-23T21:24:00.396Z,16.30
2017-06-23T21:26:29.144Z,15.87
2017-06-23T21:28:58.907Z,16.27
2017-06-23T21:31:27.364Z,17.47
2017-06-23T21:33:55.949Z,17.10
2017-06-23T21:36:24.519Z,15.77
2017-06-23T21:38:53.013Z,16.93
2017-06-23T21:42:02.503Z,16.83
2017-06-23T21:44:31.547Z,16.73
2017-06-23T21:47:00.885Z,15.83
2017-06-23T21:49:29.547Z,15.20
2017-06-23T21:51:58.045Z,16.77
2017-06-23T21:54:28.336Z,14.20
2017-06-23T21:56:57.072Z,12.90
2017-06-23T21:59:25.792Z,11.53
2017-06-23T22:01:54.257Z,10.93
2017-06-23T22:04:23.068Z,11.70
2017-06-23T22:06:52.286Z,9.93
2017-06-23T22:09:20.757Z,10.87
2017-06-23T22:11:49.763Z,9.40
2017-06-23T22:14:18.664Z,9.57
2017-06-23T22:16:47.288Z,11.27
2017-06-23T22:19:16.409Z,11.30
2017-06-23T22:21:44.861Z,11.13
2017-06-23T22:24:13.400Z,11.40
2017-06-23T22:26:42.017Z,11.07
2017-06-23T22:29:10.493Z,10.97
2017-06-23T22:31:39.456Z,11.00
2017-06-23T22:34:08.766Z,11.37
2017-06-23T22:36:37.237Z,11.00
2017-06-23T22:39:06.467Z,11.50
2017-06-23T22:41:37.429Z,11.40
2017-06-23T22:44:09.373Z,11.40
2017-06-23T22:46:38.383Z,11.53
2017-06-23T22:49:06.851Z,11.93
2017-06-23T22:51:35.664Z,11.80
2017-06-23T22:54:04.337Z,11.87
2017-06-23T22:56:33.506Z,11.73
2017-06-23T22:59:02.372Z,12.50
2017-06-23T23:01:31.609Z,12.90
2017-06-23T23:04:00.075Z,13.60
2017-06-23T23:06:28.537Z,13.77
2017-06-23T23:08:57.120Z,13.60
2017-06-23T23:11:25.661Z,13.73
2017-06-23T23:13:54.147Z,12.33
2017-06-23T23:16:22.832Z,12.57
2017-06-23T23:18:51.688Z,13.47
2017-06-23T23:21:20.277Z,13.43
2017-06-23T23:23:48.773Z,14.30
2017-06-23T23:26:17.252Z,13.80
2017-06-23T23:28:45.874Z,13.60
2017-06-23T23:31:14.349Z,12.43
2017-06-23T23:33:43.093Z,13.20
2017-06-23T23:36:11.986Z,12.90
2017-06-23T23:38:40.449Z,13.23
2017-06-23T23:41:09.769Z,13.37
2017-06-23T23:43:38.227Z,14.23
2017-06-23T23:46:07.191Z,13.70
2017-06-23T23:48:35.774Z,12.57
2017-06-23T23:51:04.238Z,13.43
2017-06-23T23:53:32.716Z,14.00
2017-06-23T23:56:01.341Z,13.93
2017-06-23T23:58:30.021Z,13.13
